sensor_id;sensor_type;location;lat;lon;timestamp;P1;durP1;ratioP1;P2;durP2;ratioP2
33579;SDS011;19909;43.644;-79.438;2022-11-20T00:00:53;1.05;;;0.60;;
33579;SDS011;19909;43.644;-79.438;2022-11-20T00:03:19;0.98;;;0.63;;
33579;SDS011;19909;43.644;-79.438;2022-11-20T00:05:46;1.13;;;0.50;;
33579;SDS011;19909;43.644;-79.438;2022-11-20T00:08:12;0.80;;;0.50;;
33579;SDS011;19909;43.644;-79.438;2022-11-20T00:10:39;0.77;;;0.45;;
33579;SDS011;19909;43.644;-79.438;2022-11-20T00:13:07;1.17;;;0.65;;
33579;SDS011;19909;43.644;-79.438;2022-11-20T00:15:33;0.68;;;0.50;;
33579;SDS011;19909;43.644;-79.438;2022-11-20T00:18:00;0.40;;;0.38;;
33579;SDS011;19909;43.644;-79.438;2022-11-20T00:20:26;2.58;;;0.65;;
33579;SDS011;19909;43.644;-79.438;2022-11-20T00:22:53;0.73;;;0.47;;
33579;SDS011;19909;43.644;-79.438;2022-11-20T00:25:19;1.40;;;0.63;;
33579;SDS011;19909;43.644;-79.438;2022-11-20T00:27:46;1.30;;;0.50;;
33579;SDS011;19909;43.644;-79.438;2022-11-20T00:30:12;0.75;;;0.40;;
33579;SDS011;19909;43.644;-79.438;2022-11-20T00:32:39;0.70;;;0.40;;
33579;SDS011;19909;43.644;-79.438;2022-11-20T00:35:05;1.08;;;0.60;;
33579;SDS011;19909;43.644;-79.438;2022-11-20T00:37:32;0.85;;;0.50;;
33579;SDS011;19909;43.644;-79.438;2022-11-20T00:39:58;1.40;;;0.35;;
33579;SDS011;19909;43.644;-79.438;2022-11-20T00:42:25;1.83;;;0.40;;
33579;SDS011;19909;43.644;-79.438;2022-11-20T00:44:51;1.13;;;0.60;;
33579;SDS011;19909;43.644;-79.438;2022-11-20T00:47:18;4.38;;;0.70;;
33579;SDS011;19909;43.644;-79.438;2022-11-20T00:49:45;1.23;;;0.68;;
33579;SDS011;19909;43.644;-79.438;2022-11-20T00:52:11;0.85;;;0.60;;
33579;SDS011;19909;43.644;-79.438;2022-11-20T00:54:38;0.90;;;0.60;;
33579;SDS011;19909;43.644;-79.438;2022-11-20T00:57:04;0.82;;;0.70;;
33579;SDS011;19909;43.644;-79.438;2022-11-20T00:59:31;1.77;;;0.77;;
33579;SDS011;19909;43.644;-79.438;2022-11-20T01:01:57;1.05;;;0.70;;
33579;SDS011;19909;43.644;-79.438;2022-11-20T01:04:23;2.22;;;0.63;;
33579;SDS011;19909;43.644;-79.438;2022-11-20T01:06:50;1.60;;;0.60;;
33579;SDS011;19909;43.644;-79.438;2022-11-20T01:09:16;1.15;;;0.70;;
33579;SDS011;19909;43.644;-79.438;2022-11-20T01:11:43;0.93;;;0.47;;
33579;SDS011;19909;43.644;-79.438;2022-11-20T01:14:11;0.90;;;0.68;;
33579;SDS011;19909;43.644;-79.438;2022-11-20T01:16:41;0.80;;;0.50;;
33579;SDS011;19909;43.644;-79.438;2022-11-20T01:19:11;0.75;;;0.57;;
33579;SDS011;19909;43.644;-79.438;2022-11-20T01:21:40;1.00;;;0.65;;
33579;SDS011;19909;43.644;-79.438;2022-11-20T01:24:09;0.70;;;0.57;;
33579;SDS011;19909;43.644;-79.438;2022-11-20T01:26:38;1.95;;;0.63;;
33579;SDS011;19909;43.644;-79.438;2022-11-20T01:29:06;1.10;;;0.60;;
33579;SDS011;19909;43.644;-79.438;2022-11-20T01:31:35;1.58;;;0.65;;
33579;SDS011;19909;43.644;-79.438;2022-11-20T01:34:04;0.60;;;0.40;;
33579;SDS011;19909;43.644;-79.438;2022-11-20T01:36:33;1.05;;;0.70;;
33579;SDS011;19909;43.644;-79.438;2022-11-20T01:39:04;1.42;;;0.57;;
33579;SDS011;19909;43.644;-79.438;2022-11-20T01:41:33;1.08;;;0.70;;
33579;SDS011;19909;43.644;-79.438;2022-11-20T01:44:20;0.82;;;0.55;;
33579;SDS011;19909;43.644;-79.438;2022-11-20T01:47:06;1.10;;;0.52;;
33579;SDS011;19909;43.644;-79.438;2022-11-20T01:49:39;1.65;;;0.60;;
33579;SDS011;19909;43.644;-79.438;2022-11-20T01:54:54;0.50;;;0.50;;
33579;SDS011;19909;43.644;-79.438;2022-11-20T01:57:27;0.70;;;0.50;;
33579;SDS011;19909;43.644;-79.438;2022-11-20T01:59:59;0.63;;;0.40;;
33579;SDS011;19909;43.644;-79.438;2022-11-20T02:02:36;0.98;;;0.50;;
33579;SDS011;19909;43.644;-79.438;2022-11-20T02:05:16;1.33;;;0.57;;
33579;SDS011;19909;43.644;-79.438;2022-11-20T02:07:56;1.45;;;0.40;;
33579;SDS011;19909;43.644;-79.438;2022-11-20T02:10:24;0.63;;;0.52;;
33579;SDS011;19909;43.644;-79.438;2022-11-20T02:12:52;0.70;;;0.40;;
33579;SDS011;19909;43.644;-79.438;2022-11-20T02:15:38;0.60;;;0.35;;
33579;SDS011;19909;43.644;-79.438;2022-11-20T02:18:05;0.63;;;0.45;;
33579;SDS011;19909;43.644;-79.438;2022-11-20T02:20:32;0.73;;;0.40;;
33579;SDS011;19909;43.644;-79.438;2022-11-20T02:23:09;0.80;;;0.50;;
33579;SDS011;19909;43.644;-79.438;2022-11-20T02:25:41;0.57;;;0.40;;
33579;SDS011;19909;43.644;-79.438;2022-11-20T02:28:08;0.80;;;0.68;;
33579;SDS011;19909;43.644;-79.438;2022-11-20T02:30:35;0.88;;;0.50;;
33579;SDS011;19909;43.644;-79.438;2022-11-20T02:33:02;0.73;;;0.50;;
33579;SDS011;19909;43.644;-79.438;2022-11-20T02:37:57;0.57;;;0.50;;
33579;SDS011;19909;43.644;-79.438;2022-11-20T02:40:26;0.80;;;0.60;;
33579;SDS011;19909;43.644;-79.438;2022-11-20T02:42:54;0.90;;;0.40;;
33579;SDS011;19909;43.644;-79.438;2022-11-20T02:45:21;0.95;;;0.50;;
33579;SDS011;19909;43.644;-79.438;2022-11-20T02:47:48;1.13;;;0.60;;
33579;SDS011;19909;43.644;-79.438;2022-11-20T02:50:15;1.75;;;0.47;;
33579;SDS011;19909;43.644;-79.438;2022-11-20T02:52:42;1.13;;;0.43;;
33579;SDS011;19909;43.644;-79.438;2022-11-20T02:55:08;1.65;;;0.63;;
33579;SDS011;19909;43.644;-79.438;2022-11-20T02:57:35;0.88;;;0.40;;
33579;SDS011;19909;43.644;-79.438;2022-11-20T03:00:02;1.00;;;0.70;;
33579;SDS011;19909;43.644;-79.438;2022-11-20T03:02:30;0.47;;;0.45;;
33579;SDS011;19909;43.644;-79.438;2022-11-20T03:04:57;1.27;;;0.50;;
33579;SDS011;19909;43.644;-79.438;2022-11-20T03:07:24;1.00;;;0.50;;
33579;SDS011;19909;43.644;-79.438;2022-11-20T03:09:51;0.40;;;0.30;;
33579;SDS011;19909;43.644;-79.438;2022-11-20T03:12:17;0.43;;;0.30;;
33579;SDS011;19909;43.644;-79.438;2022-11-20T03:14:43;1.42;;;0.70;;
33579;SDS011;19909;43.644;-79.438;2022-11-20T03:17:10;0.93;;;0.35;;
33579;SDS011;19909;43.644;-79.438;2022-11-20T03:19:37;0.70;;;0.40;;
33579;SDS011;19909;43.644;-79.438;2022-11-20T03:22:03;1.15;;;0.43;;
33579;SDS011;19909;43.644;-79.438;2022-11-20T03:24:29;0.35;;;0.30;;
33579;SDS011;19909;43.644;-79.438;2022-11-20T03:26:56;0.70;;;0.40;;
33579;SDS011;19909;43.644;-79.438;2022-11-20T03:29:22;0.88;;;0.45;;
33579;SDS011;19909;43.644;-79.438;2022-11-20T03:31:49;0.75;;;0.40;;
33579;SDS011;19909;43.644;-79.438;2022-11-20T03:34:16;0.80;;;0.45;;
33579;SDS011;19909;43.644;-79.438;2022-11-20T03:36:42;0.88;;;0.55;;
33579;SDS011;19909;43.644;-79.438;2022-11-20T03:39:09;1.17;;;0.80;;
33579;SDS011;19909;43.644;-79.438;2022-11-20T03:41:37;0.65;;;0.63;;
33579;SDS011;19909;43.644;-79.438;2022-11-20T03:44:05;1.13;;;0.50;;
33579;SDS011;19909;43.644;-79.438;2022-11-20T03:46:33;0.73;;;0.30;;
33579;SDS011;19909;43.644;-79.438;2022-11-20T03:49:00;0.95;;;0.40;;
33579;SDS011;19909;43.644;-79.438;2022-11-20T03:51:27;0.80;;;0.52;;
33579;SDS011;19909;43.644;-79.438;2022-11-20T03:53:56;0.60;;;0.45;;
33579;SDS011;19909;43.644;-79.438;2022-11-20T03:56:25;1.58;;;0.40;;
33579;SDS011;19909;43.644;-79.438;2022-11-20T03:58:56;1.15;;;0.60;;
33579;SDS011;19909;43.644;-79.438;2022-11-20T04:01:24;0.85;;;0.40;;
33579;SDS011;19909;43.644;-79.438;2022-11-20T04:03:53;0.55;;;0.40;;
33579;SDS011;19909;43.644;-79.438;2022-11-20T04:06:22;0.80;;;0.40;;
33579;SDS011;19909;43.644;-79.438;2022-11-20T04:08:51;0.70;;;0.50;;
33579;SDS011;19909;43.644;-79.438;2022-11-20T04:11:22;0.80;;;0.40;;
33579;SDS011;19909;43.644;-79.438;2022-11-20T04:13:54;0.65;;;0.40;;
33579;SDS011;19909;43.644;-79.438;2022-11-20T04:16:22;0.50;;;0.37;;
33579;SDS011;19909;43.644;-79.438;2022-11-20T04:18:53;3.10;;;0.60;;
33579;SDS011;19909;43.644;-79.438;2022-11-20T04:21:20;0.60;;;0.20;;
33579;SDS011;19909;43.644;-79.438;2022-11-20T04:23:50;0.40;;;0.20;;
33579;SDS011;19909;43.644;-79.438;2022-11-20T04:26:21;0.30;;;0.30;;
33579;SDS011;19909;43.644;-79.438;2022-11-20T04:28:49;0.50;;;0.30;;
33579;SDS011;19909;43.644;-79.438;2022-11-20T04:31:16;0.88;;;0.40;;
33579;SDS011;19909;43.644;-79.438;2022-11-20T04:33:45;0.88;;;0.50;;
33579;SDS011;19909;43.644;-79.438;2022-11-20T04:36:19;0.98;;;0.30;;
33579;SDS011;19909;43.644;-79.438;2022-11-20T04:38:50;0.98;;;0.38;;
33579;SDS011;19909;43.644;-79.438;2022-11-20T04:41:19;0.70;;;0.50;;
33579;SDS011;19909;43.644;-79.438;2022-11-20T04:43:48;0.57;;;0.30;;
33579;SDS011;19909;43.644;-79.438;2022-11-20T04:46:17;0.88;;;0.30;;
33579;SDS011;19909;43.644;-79.438;2022-11-20T04:48:46;1.27;;;0.55;;
33579;SDS011;19909;43.644;-79.438;2022-11-20T04:51:13;0.60;;;0.40;;
33579;SDS011;19909;43.644;-79.438;2022-11-20T04:53:39;0.40;;;0.30;;
33579;SDS011;19909;43.644;-79.438;2022-11-20T04:56:07;0.70;;;0.40;;
33579;SDS011;19909;43.644;-79.438;2022-11-20T04:58:35;1.75;;;0.40;;
33579;SDS011;19909;43.644;-79.438;2022-11-20T05:01:03;0.88;;;0.47;;
33579;SDS011;19909;43.644;-79.438;2022-11-20T05:03:31;0.50;;;0.30;;
33579;SDS011;19909;43.644;-79.438;2022-11-20T05:06:02;0.90;;;0.60;;
33579;SDS011;19909;43.644;-79.438;2022-11-20T05:08:30;0.70;;;0.30;;
33579;SDS011;19909;43.644;-79.438;2022-11-20T05:11:01;1.20;;;0.38;;
33579;SDS011;19909;43.644;-79.438;2022-11-20T05:13:29;0.40;;;0.30;;
33579;SDS011;19909;43.644;-79.438;2022-11-20T05:16:00;0.30;;;0.20;;
33579;SDS011;19909;43.644;-79.438;2022-11-20T05:18:31;1.10;;;0.40;;
33579;SDS011;19909;43.644;-79.438;2022-11-20T05:20:59;0.55;;;0.20;;
33579;SDS011;19909;43.644;-79.438;2022-11-20T05:23:26;0.20;;;0.20;;
33579;SDS011;19909;43.644;-79.438;2022-11-20T05:25:55;0.30;;;0.30;;
33579;SDS011;19909;43.644;-79.438;2022-11-20T05:28:22;0.38;;;0.30;;
33579;SDS011;19909;43.644;-79.438;2022-11-20T05:30:49;1.85;;;0.30;;
33579;SDS011;19909;43.644;-79.438;2022-11-20T05:33:16;0.73;;;0.38;;
33579;SDS011;19909;43.644;-79.438;2022-11-20T05:35:43;0.45;;;0.30;;
33579;SDS011;19909;43.644;-79.438;2022-11-20T05:38:10;0.35;;;0.28;;
33579;SDS011;19909;43.644;-79.438;2022-11-20T05:40:36;0.75;;;0.30;;
33579;SDS011;19909;43.644;-79.438;2022-11-20T05:43:03;0.30;;;0.20;;
33579;SDS011;19909;43.644;-79.438;2022-11-20T05:45:29;0.55;;;0.30;;
33579;SDS011;19909;43.644;-79.438;2022-11-20T05:47:59;1.10;;;0.20;;
33579;SDS011;19909;43.644;-79.438;2022-11-20T05:50:28;2.35;;;0.50;;
33579;SDS011;19909;43.644;-79.438;2022-11-20T05:52:57;0.88;;;0.25;;
33579;SDS011;19909;43.644;-79.438;2022-11-20T05:55:25;0.40;;;0.20;;
33579;SDS011;19909;43.644;-79.438;2022-11-20T05:57:53;1.20;;;0.40;;
33579;SDS011;19909;43.644;-79.438;2022-11-20T06:00:20;0.55;;;0.20;;
33579;SDS011;19909;43.644;-79.438;2022-11-20T06:02:46;0.30;;;0.30;;
33579;SDS011;19909;43.644;-79.438;2022-11-20T06:05:13;0.30;;;0.20;;
33579;SDS011;19909;43.644;-79.438;2022-11-20T06:07:39;0.40;;;0.30;;
33579;SDS011;19909;43.644;-79.438;2022-11-20T06:10:06;0.90;;;0.30;;
33579;SDS011;19909;43.644;-79.438;2022-11-20T06:12:32;0.85;;;0.32;;
33579;SDS011;19909;43.644;-79.438;2022-11-20T06:14:59;0.55;;;0.22;;
33579;SDS011;19909;43.644;-79.438;2022-11-20T06:17:26;0.52;;;0.30;;
33579;SDS011;19909;43.644;-79.438;2022-11-20T06:19:53;1.10;;;0.20;;
33579;SDS011;19909;43.644;-79.438;2022-11-20T06:22:19;0.20;;;0.20;;
33579;SDS011;19909;43.644;-79.438;2022-11-20T06:24:45;0.20;;;0.20;;
33579;SDS011;19909;43.644;-79.438;2022-11-20T06:27:12;0.50;;;0.32;;
33579;SDS011;19909;43.644;-79.438;2022-11-20T06:29:38;0.60;;;0.30;;
33579;SDS011;19909;43.644;-79.438;2022-11-20T06:32:05;0.40;;;0.30;;
33579;SDS011;19909;43.644;-79.438;2022-11-20T06:34:31;0.40;;;0.30;;
33579;SDS011;19909;43.644;-79.438;2022-11-20T06:36:58;0.40;;;0.20;;
33579;SDS011;19909;43.644;-79.438;2022-11-20T06:39:24;1.20;;;0.40;;
33579;SDS011;19909;43.644;-79.438;2022-11-20T06:41:51;0.70;;;0.30;;
33579;SDS011;19909;43.644;-79.438;2022-11-20T06:44:17;0.73;;;0.17;;
33579;SDS011;19909;43.644;-79.438;2022-11-20T06:46:44;0.20;;;0.10;;
33579;SDS011;19909;43.644;-79.438;2022-11-20T06:49:10;0.30;;;0.25;;
33579;SDS011;19909;43.644;-79.438;2022-11-20T06:51:37;0.57;;;0.20;;
33579;SDS011;19909;43.644;-79.438;2022-11-20T06:54:03;0.25;;;0.13;;
33579;SDS011;19909;43.644;-79.438;2022-11-20T06:56:30;0.98;;;0.30;;
33579;SDS011;19909;43.644;-79.438;2022-11-20T06:58:56;0.52;;;0.30;;
33579;SDS011;19909;43.644;-79.438;2022-11-20T07:01:23;0.40;;;0.20;;
33579;SDS011;19909;43.644;-79.438;2022-11-20T07:03:49;0.28;;;0.20;;
33579;SDS011;19909;43.644;-79.438;2022-11-20T07:06:16;1.83;;;0.30;;
33579;SDS011;19909;43.644;-79.438;2022-11-20T07:08:42;0.30;;;0.30;;
33579;SDS011;19909;43.644;-79.438;2022-11-20T07:11:10;0.30;;;0.20;;
33579;SDS011;19909;43.644;-79.438;2022-11-20T07:13:38;0.30;;;0.20;;
33579;SDS011;19909;43.644;-79.438;2022-11-20T07:16:05;0.25;;;0.20;;
33579;SDS011;19909;43.644;-79.438;2022-11-20T07:18:33;0.30;;;0.20;;
33579;SDS011;19909;43.644;-79.438;2022-11-20T07:21:00;0.40;;;0.30;;
33579;SDS011;19909;43.644;-79.438;2022-11-20T07:23:27;0.22;;;0.20;;
33579;SDS011;19909;43.644;-79.438;2022-11-20T07:25:54;0.55;;;0.20;;
33579;SDS011;19909;43.644;-79.438;2022-11-20T07:28:20;0.50;;;0.30;;
33579;SDS011;19909;43.644;-79.438;2022-11-20T07:30:53;1.55;;;0.20;;
33579;SDS011;19909;43.644;-79.438;2022-11-20T07:33:19;0.10;;;0.10;;
33579;SDS011;19909;43.644;-79.438;2022-11-20T07:35:46;0.43;;;0.17;;
33579;SDS011;19909;43.644;-79.438;2022-11-20T07:38:12;1.17;;;0.20;;
33579;SDS011;19909;43.644;-79.438;2022-11-20T07:40:39;0.22;;;0.17;;
33579;SDS011;19909;43.644;-79.438;2022-11-20T07:43:05;0.70;;;0.20;;
33579;SDS011;19909;43.644;-79.438;2022-11-20T07:45:32;0.40;;;0.20;;
33579;SDS011;19909;43.644;-79.438;2022-11-20T07:47:58;0.22;;;0.20;;
33579;SDS011;19909;43.644;-79.438;2022-11-20T07:50:24;0.68;;;0.30;;
33579;SDS011;19909;43.644;-79.438;2022-11-20T07:52:51;0.30;;;0.17;;
33579;SDS011;19909;43.644;-79.438;2022-11-20T07:55:17;0.70;;;0.15;;
33579;SDS011;19909;43.644;-79.438;2022-11-20T07:57:44;0.13;;;0.10;;
33579;SDS011;19909;43.644;-79.438;2022-11-20T08:00:10;0.40;;;0.20;;
33579;SDS011;19909;43.644;-79.438;2022-11-20T08:02:41;0.50;;;0.20;;
33579;SDS011;19909;43.644;-79.438;2022-11-20T08:05:08;0.50;;;0.25;;
33579;SDS011;19909;43.644;-79.438;2022-11-20T08:07:39;0.52;;;0.30;;
33579;SDS011;19909;43.644;-79.438;2022-11-20T08:10:08;0.32;;;0.13;;
33579;SDS011;19909;43.644;-79.438;2022-11-20T08:12:47;0.43;;;0.22;;
33579;SDS011;19909;43.644;-79.438;2022-11-20T08:15:37;0.17;;;0.10;;
33579;SDS011;19909;43.644;-79.438;2022-11-20T08:18:05;0.28;;;0.10;;
33579;SDS011;19909;43.644;-79.438;2022-11-20T08:20:34;0.30;;;0.17;;
33579;SDS011;19909;43.644;-79.438;2022-11-20T08:23:02;0.10;;;0.10;;
33579;SDS011;19909;43.644;-79.438;2022-11-20T08:25:33;0.25;;;0.08;;
33579;SDS011;19909;43.644;-79.438;2022-11-20T08:28:02;0.28;;;0.10;;
33579;SDS011;19909;43.644;-79.438;2022-11-20T08:30:29;0.95;;;0.22;;
33579;SDS011;19909;43.644;-79.438;2022-11-20T08:33:00;1.95;;;0.20;;
33579;SDS011;19909;43.644;-79.438;2022-11-20T08:35:35;0.90;;;0.55;;
33579;SDS011;19909;43.644;-79.438;2022-11-20T08:38:03;0.63;;;0.20;;
33579;SDS011;19909;43.644;-79.438;2022-11-20T08:40:30;0.20;;;0.20;;
33579;SDS011;19909;43.644;-79.438;2022-11-20T08:42:58;0.43;;;0.20;;
33579;SDS011;19909;43.644;-79.438;2022-11-20T08:45:24;0.32;;;0.17;;
33579;SDS011;19909;43.644;-79.438;2022-11-20T08:47:51;1.00;;;0.17;;
33579;SDS011;19909;43.644;-79.438;2022-11-20T08:50:17;0.40;;;0.20;;
33579;SDS011;19909;43.644;-79.438;2022-11-20T08:52:44;0.20;;;0.20;;
33579;SDS011;19909;43.644;-79.438;2022-11-20T08:55:11;0.32;;;0.20;;
33579;SDS011;19909;43.644;-79.438;2022-11-20T08:57:38;1.65;;;0.10;;
33579;SDS011;19909;43.644;-79.438;2022-11-20T09:00:05;0.20;;;0.10;;
33579;SDS011;19909;43.644;-79.438;2022-11-20T09:02:33;0.32;;;0.08;;
33579;SDS011;19909;43.644;-79.438;2022-11-20T09:04:59;0.20;;;0.10;;
33579;SDS011;19909;43.644;-79.438;2022-11-20T09:07:27;0.45;;;0.20;;
33579;SDS011;19909;43.644;-79.438;2022-11-20T09:09:56;1.23;;;0.20;;
33579;SDS011;19909;43.644;-79.438;2022-11-20T09:12:22;0.30;;;0.13;;
33579;SDS011;19909;43.644;-79.438;2022-11-20T09:14:48;0.22;;;0.10;;
33579;SDS011;19909;43.644;-79.438;2022-11-20T09:17:15;0.15;;;0.10;;
33579;SDS011;19909;43.644;-79.438;2022-11-20T09:19:42;0.30;;;0.10;;
33579;SDS011;19909;43.644;-79.438;2022-11-20T09:22:08;1.27;;;0.20;;
33579;SDS011;19909;43.644;-79.438;2022-11-20T09:24:35;1.55;;;0.10;;
33579;SDS011;19909;43.644;-79.438;2022-11-20T09:27:03;0.50;;;0.20;;
33579;SDS011;19909;43.644;-79.438;2022-11-20T09:29:30;0.73;;;0.30;;
33579;SDS011;19909;43.644;-79.438;2022-11-20T09:31:56;0.35;;;0.20;;
33579;SDS011;19909;43.644;-79.438;2022-11-20T09:34:23;0.28;;;0.10;;
33579;SDS011;19909;43.644;-79.438;2022-11-20T09:36:49;0.20;;;0.08;;
33579;SDS011;19909;43.644;-79.438;2022-11-20T09:39:15;0.20;;;0.10;;
33579;SDS011;19909;43.644;-79.438;2022-11-20T09:52:54;0.30;;;0.10;;
33579;SDS011;19909;43.644;-79.438;2022-11-20T09:55:41;0.25;;;0.10;;
33579;SDS011;19909;43.644;-79.438;2022-11-20T09:58:30;0.25;;;0.05;;
33579;SDS011;19909;43.644;-79.438;2022-11-20T10:01:03;0.25;;;0.20;;
33579;SDS011;19909;43.644;-79.438;2022-11-20T10:03:43;0.30;;;0.10;;
33579;SDS011;19909;43.644;-79.438;2022-11-20T10:06:33;0.20;;;0.10;;
33579;SDS011;19909;43.644;-79.438;2022-11-20T10:11:34;0.30;;;0.10;;
33579;SDS011;19909;43.644;-79.438;2022-11-20T10:17:06;0.85;;;0.10;;
33579;SDS011;19909;43.644;-79.438;2022-11-20T10:25:38;0.57;;;0.20;;
33579;SDS011;19909;43.644;-79.438;2022-11-20T10:30:45;0.50;;;0.20;;
33579;SDS011;19909;43.644;-79.438;2022-11-20T10:33:18;0.28;;;0.20;;
33579;SDS011;19909;43.644;-79.438;2022-11-20T10:35:51;0.00;;;0.00;;
33579;SDS011;19909;43.644;-79.438;2022-11-20T10:38:37;1.75;;;0.10;;
33579;SDS011;19909;43.644;-79.438;2022-11-20T10:41:30;0.55;;;0.20;;
33579;SDS011;19909;43.644;-79.438;2022-11-20T10:46:40;0.13;;;0.03;;
33579;SDS011;19909;43.644;-79.438;2022-11-20T10:49:14;0.60;;;0.10;;
33579;SDS011;19909;43.644;-79.438;2022-11-20T10:54:29;0.30;;;0.10;;
33579;SDS011;19909;43.644;-79.438;2022-11-20T10:57:41;0.43;;;0.10;;
33579;SDS011;19909;43.644;-79.438;2022-11-20T11:00:19;0.10;;;0.00;;
33579;SDS011;19909;43.644;-79.438;2022-11-20T11:02:50;0.17;;;0.10;;
33579;SDS011;19909;43.644;-79.438;2022-11-20T11:05:41;0.22;;;0.10;;
33579;SDS011;19909;43.644;-79.438;2022-11-20T11:08:21;0.08;;;0.03;;
33579;SDS011;19909;43.644;-79.438;2022-11-20T11:10:51;0.30;;;0.10;;
33579;SDS011;19909;43.644;-79.438;2022-11-20T11:13:24;0.30;;;0.08;;
33579;SDS011;19909;43.644;-79.438;2022-11-20T11:18:32;0.43;;;0.10;;
33579;SDS011;19909;43.644;-79.438;2022-11-20T11:21:01;0.10;;;0.03;;
33579;SDS011;19909;43.644;-79.438;2022-11-20T11:23:39;0.08;;;0.00;;
33579;SDS011;19909;43.644;-79.438;2022-11-20T11:26:23;0.17;;;0.00;;
33579;SDS011;19909;43.644;-79.438;2022-11-20T11:28:56;0.10;;;0.00;;
33579;SDS011;19909;43.644;-79.438;2022-11-20T11:31:25;0.52;;;0.10;;
33579;SDS011;19909;43.644;-79.438;2022-11-20T11:34:13;0.10;;;0.10;;
33579;SDS011;19909;43.644;-79.438;2022-11-20T11:36:41;0.57;;;0.10;;
33579;SDS011;19909;43.644;-79.438;2022-11-20T11:39:15;0.10;;;0.10;;
33579;SDS011;19909;43.644;-79.438;2022-11-20T11:41:45;0.10;;;0.00;;
33579;SDS011;19909;43.644;-79.438;2022-11-20T11:47:08;0.30;;;0.10;;
33579;SDS011;19909;43.644;-79.438;2022-11-20T11:49:46;0.15;;;0.08;;
33579;SDS011;19909;43.644;-79.438;2022-11-20T11:52:20;0.40;;;0.10;;
33579;SDS011;19909;43.644;-79.438;2022-11-20T12:00:03;0.10;;;0.10;;
33579;SDS011;19909;43.644;-79.438;2022-11-20T12:13:04;0.10;;;0.10;;
33579;SDS011;19909;43.644;-79.438;2022-11-20T12:16:11;1.45;;;0.10;;
33579;SDS011;19909;43.644;-79.438;2022-11-20T12:18:43;0.17;;;0.10;;
33579;SDS011;19909;43.644;-79.438;2022-11-20T12:29:09;0.30;;;0.00;;
33579;SDS011;19909;43.644;-79.438;2022-11-20T12:34:47;0.32;;;0.10;;
33579;SDS011;19909;43.644;-79.438;2022-11-20T12:43:21;0.20;;;0.10;;
33579;SDS011;19909;43.644;-79.438;2022-11-20T12:48:51;0.98;;;0.00;;
33579;SDS011;19909;43.644;-79.438;2022-11-20T12:54:25;0.10;;;0.00;;
33579;SDS011;19909;43.644;-79.438;2022-11-20T12:57:08;0.10;;;0.00;;
33579;SDS011;19909;43.644;-79.438;2022-11-20T13:02:36;0.00;;;0.00;;
33579;SDS011;19909;43.644;-79.438;2022-11-20T13:08:21;0.10;;;0.10;;
33579;SDS011;19909;43.644;-79.438;2022-11-20T13:11:11;0.43;;;0.20;;
33579;SDS011;19909;43.644;-79.438;2022-11-20T13:16:33;0.10;;;0.00;;
33579;SDS011;19909;43.644;-79.438;2022-11-20T13:19:09;0.25;;;0.10;;
33579;SDS011;19909;43.644;-79.438;2022-11-20T13:21:40;0.20;;;0.05;;
33579;SDS011;19909;43.644;-79.438;2022-11-20T13:26:59;0.10;;;0.03;;
33579;SDS011;19909;43.644;-79.438;2022-11-20T13:29:43;0.20;;;0.00;;
33579;SDS011;19909;43.644;-79.438;2022-11-20T13:32:17;0.30;;;0.10;;
33579;SDS011;19909;43.644;-79.438;2022-11-20T13:34:56;0.45;;;0.15;;
33579;SDS011;19909;43.644;-79.438;2022-11-20T13:40:05;0.15;;;0.10;;
33579;SDS011;19909;43.644;-79.438;2022-11-20T13:45:59;0.50;;;0.20;;
33579;SDS011;19909;43.644;-79.438;2022-11-20T13:48:32;0.68;;;0.10;;
33579;SDS011;19909;43.644;-79.438;2022-11-20T14:02:19;0.25;;;0.10;;
33579;SDS011;19909;43.644;-79.438;2022-11-20T14:04:48;0.05;;;0.05;;
33579;SDS011;19909;43.644;-79.438;2022-11-20T14:07:24;0.10;;;0.10;;
33579;SDS011;19909;43.644;-79.438;2022-11-20T14:09:57;1.48;;;0.20;;
33579;SDS011;19909;43.644;-79.438;2022-11-20T14:12:30;0.73;;;0.30;;
33579;SDS011;19909;43.644;-79.438;2022-11-20T14:14:59;0.50;;;0.13;;
33579;SDS011;19909;43.644;-79.438;2022-11-20T14:17:32;0.15;;;0.10;;
33579;SDS011;19909;43.644;-79.438;2022-11-20T14:20:03;0.80;;;0.10;;
33579;SDS011;19909;43.644;-79.438;2022-11-20T14:22:31;0.25;;;0.10;;
33579;SDS011;19909;43.644;-79.438;2022-11-20T14:27:37;0.17;;;0.10;;
33579;SDS011;19909;43.644;-79.438;2022-11-20T14:30:12;0.75;;;0.20;;
33579;SDS011;19909;43.644;-79.438;2022-11-20T14:32:44;0.20;;;0.10;;
33579;SDS011;19909;43.644;-79.438;2022-11-20T14:35:33;0.38;;;0.20;;
33579;SDS011;19909;43.644;-79.438;2022-11-20T14:38:14;0.20;;;0.10;;
33579;SDS011;19909;43.644;-79.438;2022-11-20T14:40:44;0.05;;;0.05;;
33579;SDS011;19909;43.644;-79.438;2022-11-20T14:46:03;0.10;;;0.10;;
33579;SDS011;19909;43.644;-79.438;2022-11-20T14:48:49;0.20;;;0.10;;
33579;SDS011;19909;43.644;-79.438;2022-11-20T14:51:34;0.00;;;0.00;;
33579;SDS011;19909;43.644;-79.438;2022-11-20T14:56:56;0.10;;;0.05;;
33579;SDS011;19909;43.644;-79.438;2022-11-20T14:59:25;0.45;;;0.10;;
33579;SDS011;19909;43.644;-79.438;2022-11-20T15:02:03;0.08;;;0.00;;
33579;SDS011;19909;43.644;-79.438;2022-11-20T15:04:44;0.20;;;0.10;;
33579;SDS011;19909;43.644;-79.438;2022-11-20T15:07:11;0.10;;;0.10;;
33579;SDS011;19909;43.644;-79.438;2022-11-20T15:10:38;0.32;;;0.10;;
33579;SDS011;19909;43.644;-79.438;2022-11-20T15:12:51;0.20;;;0.13;;
33579;SDS011;19909;43.644;-79.438;2022-11-20T15:15:32;0.65;;;0.13;;
33579;SDS011;19909;43.644;-79.438;2022-11-20T15:18:11;0.50;;;0.20;;
33579;SDS011;19909;43.644;-79.438;2022-11-20T15:20:40;0.45;;;0.20;;
33579;SDS011;19909;43.644;-79.438;2022-11-20T15:23:14;0.10;;;0.08;;
33579;SDS011;19909;43.644;-79.438;2022-11-20T15:25:45;0.15;;;0.10;;
33579;SDS011;19909;43.644;-79.438;2022-11-20T15:30:54;0.60;;;0.00;;
33579;SDS011;19909;43.644;-79.438;2022-11-20T15:33:24;0.88;;;0.10;;
33579;SDS011;19909;43.644;-79.438;2022-11-20T15:35:51;0.17;;;0.10;;
33579;SDS011;19909;43.644;-79.438;2022-11-20T15:38:17;0.30;;;0.20;;
33579;SDS011;19909;43.644;-79.438;2022-11-20T15:40:44;0.70;;;0.20;;
33579;SDS011;19909;43.644;-79.438;2022-11-20T15:43:10;0.35;;;0.00;;
33579;SDS011;19909;43.644;-79.438;2022-11-20T15:48:27;0.15;;;0.00;;
33579;SDS011;19909;43.644;-79.438;2022-11-20T15:51:29;0.43;;;0.20;;
33579;SDS011;19909;43.644;-79.438;2022-11-20T15:53:58;0.10;;;0.05;;
33579;SDS011;19909;43.644;-79.438;2022-11-20T15:56:25;0.40;;;0.13;;
33579;SDS011;19909;43.644;-79.438;2022-11-20T15:58:52;0.17;;;0.10;;
33579;SDS011;19909;43.644;-79.438;2022-11-20T16:01:20;0.40;;;0.10;;
33579;SDS011;19909;43.644;-79.438;2022-11-20T16:03:47;0.32;;;0.20;;
33579;SDS011;19909;43.644;-79.438;2022-11-20T16:06:14;0.43;;;0.10;;
33579;SDS011;19909;43.644;-79.438;2022-11-20T16:08:45;0.00;;;0.00;;
33579;SDS011;19909;43.644;-79.438;2022-11-20T16:11:13;0.40;;;0.20;;
33579;SDS011;19909;43.644;-79.438;2022-11-20T16:13:41;0.22;;;0.10;;
33579;SDS011;19909;43.644;-79.438;2022-11-20T16:16:36;0.45;;;0.13;;
33579;SDS011;19909;43.644;-79.438;2022-11-20T16:19:05;0.10;;;0.00;;
33579;SDS011;19909;43.644;-79.438;2022-11-20T16:21:36;0.68;;;0.20;;
33579;SDS011;19909;43.644;-79.438;2022-11-20T16:24:07;0.00;;;0.00;;
33579;SDS011;19909;43.644;-79.438;2022-11-20T16:26:38;0.17;;;0.10;;
33579;SDS011;19909;43.644;-79.438;2022-11-20T16:29:06;0.75;;;0.20;;
33579;SDS011;19909;43.644;-79.438;2022-11-20T16:31:34;0.10;;;0.00;;
33579;SDS011;19909;43.644;-79.438;2022-11-20T16:34:04;0.10;;;0.10;;
33579;SDS011;19909;43.644;-79.438;2022-11-20T16:36:34;0.47;;;0.10;;
33579;SDS011;19909;43.644;-79.438;2022-11-20T16:39:02;0.10;;;0.00;;
33579;SDS011;19909;43.644;-79.438;2022-11-20T16:41:30;0.13;;;0.08;;